CKB9 weather

Shoal Lake Seaplane Base
Manitoba, Canada

Public forecast

Using degrees Celsius for public forecast. Weather courtesy of forecast.io.

METAR (pilot weather report)

Closest report is Brandon Municipal Airport, 40.1 nm (74.3 km) SE. Retrieved 2019/05/20 23:00 UTC (55 minutes ago):

CYBR 202300Z 13008KT 15SM SCT090 SCT250 19/M00 A3011 RMK AC3CI1 SLP209 DENSITY ALT 2000FT

TAF (pilot weather forecast)

Closest forecast is Brandon Municipal Airport, 40.1 nm (74.3 km) SE. Retrieved 2019/05/20 18:39 UTC (5 hours ago):

TAF TAF CYBR 201738Z 2018/2106 08015G25KT P6SM FEW060 FM201900 09015G25KT P6SM SCT070 TEMPO 2019/2103 BKN070 FM210300 08008KT P6SM FEW070 RMK NXT FCST BY 210000Z